sensor_id;sensor_type;location;lat;lon;timestamp;pressure;altitude;pressure_sealevel;temperature;humidity
5284;BME280;15377;48.540;9.268;2022-12-29T00:01:52;97075.16;;;9.69;100.00
5284;BME280;15377;48.540;9.268;2022-12-29T00:04:18;97073.56;;;9.77;100.00
5284;BME280;15377;48.540;9.268;2022-12-29T00:06:44;97070.63;;;9.81;100.00
5284;BME280;15377;48.540;9.268;2022-12-29T00:09:13;97080.66;;;9.98;100.00
5284;BME280;15377;48.540;9.268;2022-12-29T00:11:38;97086.44;;;10.00;100.00
5284;BME280;15377;48.540;9.268;2022-12-29T00:14:04;97081.06;;;10.06;100.00
5284;BME280;15377;48.540;9.268;2022-12-29T00:16:48;97079.44;;;9.99;100.00
5284;BME280;15377;48.540;9.268;2022-12-29T00:19:14;97069.22;;;10.00;100.00
5284;BME280;15377;48.540;9.268;2022-12-29T00:21:58;97073.84;;;10.08;100.00
5284;BME280;15377;48.540;9.268;2022-12-29T00:24:43;97058.59;;;10.07;100.00
5284;BME280;15377;48.540;9.268;2022-12-29T00:27:28;97048.22;;;10.02;100.00
5284;BME280;15377;48.540;9.268;2022-12-29T00:30:16;97053.94;;;10.13;100.00
5284;BME280;15377;48.540;9.268;2022-12-29T00:33:00;97038.19;;;9.99;100.00
5284;BME280;15377;48.540;9.268;2022-12-29T00:35:50;97048.22;;;10.02;100.00
5284;BME280;15377;48.540;9.268;2022-12-29T00:38:17;97047.06;;;10.03;100.00
5284;BME280;15377;48.540;9.268;2022-12-29T00:41:01;97043.88;;;9.96;100.00
5284;BME280;15377;48.540;9.268;2022-12-29T00:43:45;97047.28;;;9.91;100.00
5284;BME280;15377;48.540;9.268;2022-12-29T00:46:29;97049.38;;;10.10;100.00
5284;BME280;15377;48.540;9.268;2022-12-29T00:48:54;97046.38;;;10.08;100.00
5284;BME280;15377;48.540;9.268;2022-12-29T00:51:38;97053.56;;;10.06;100.00
5284;BME280;15377;48.540;9.268;2022-12-29T00:54:04;97054.97;;;10.01;100.00
5284;BME280;15377;48.540;9.268;2022-12-29T00:56:29;97043.34;;;10.06;100.00
5284;BME280;15377;48.540;9.268;2022-12-29T00:58:54;97042.94;;;10.13;100.00
5284;BME280;15377;48.540;9.268;2022-12-29T01:01:20;97043.16;;;9.95;100.00
5284;BME280;15377;48.540;9.268;2022-12-29T01:03:45;97036.69;;;10.13;100.00
5284;BME280;15377;48.540;9.268;2022-12-29T01:06:11;97043.31;;;10.21;100.00
5284;BME280;15377;48.540;9.268;2022-12-29T01:08:37;97034.59;;;10.22;100.00
5284;BME280;15377;48.540;9.268;2022-12-29T01:11:07;97038.84;;;10.23;100.00
5284;BME280;15377;48.540;9.268;2022-12-29T01:13:33;97033.84;;;10.07;100.00
5284;BME280;15377;48.540;9.268;2022-12-29T01:15:59;97036.88;;;10.09;100.00
5284;BME280;15377;48.540;9.268;2022-12-29T01:18:25;97031.56;;;10.06;100.00
5284;BME280;15377;48.540;9.268;2022-12-29T01:20:51;97036.31;;;9.91;100.00
5284;BME280;15377;48.540;9.268;2022-12-29T01:23:16;97030.34;;;9.92;100.00
5284;BME280;15377;48.540;9.268;2022-12-29T01:25:42;97035.91;;;9.98;100.00
5284;BME280;15377;48.540;9.268;2022-12-29T01:28:07;97030.81;;;9.91;100.00
5284;BME280;15377;48.540;9.268;2022-12-29T01:30:34;97039.44;;;9.98;100.00
5284;BME280;15377;48.540;9.268;2022-12-29T01:33:00;97040.00;;;10.02;100.00
5284;BME280;15377;48.540;9.268;2022-12-29T01:35:26;97049.88;;;10.09;100.00
5284;BME280;15377;48.540;9.268;2022-12-29T01:37:51;97054.53;;;10.03;100.00
5284;BME280;15377;48.540;9.268;2022-12-29T01:40:16;97049.19;;;9.99;100.00
5284;BME280;15377;48.540;9.268;2022-12-29T01:42:42;97045.31;;;9.91;100.00
5284;BME280;15377;48.540;9.268;2022-12-29T01:47:37;97050.72;;;10.00;100.00
5284;BME280;15377;48.540;9.268;2022-12-29T01:50:17;97038.84;;;9.94;100.00
5284;BME280;15377;48.540;9.268;2022-12-29T01:52:50;97056.22;;;10.00;100.00
5284;BME280;15377;48.540;9.268;2022-12-29T01:55:17;97054.16;;;9.95;100.00
5284;BME280;15377;48.540;9.268;2022-12-29T01:57:46;97051.78;;;9.88;100.00
5284;BME280;15377;48.540;9.268;2022-12-29T02:00:13;97052.72;;;9.85;100.00
5284;BME280;15377;48.540;9.268;2022-12-29T02:02:40;97042.00;;;9.73;100.00
5284;BME280;15377;48.540;9.268;2022-12-29T02:05:13;97038.81;;;9.74;100.00
5284;BME280;15377;48.540;9.268;2022-12-29T02:07:42;97042.09;;;9.78;100.00
5284;BME280;15377;48.540;9.268;2022-12-29T02:10:07;97035.84;;;9.92;100.00
5284;BME280;15377;48.540;9.268;2022-12-29T02:12:33;97043.63;;;10.08;100.00
5284;BME280;15377;48.540;9.268;2022-12-29T02:15:00;97051.84;;;10.23;100.00
5284;BME280;15377;48.540;9.268;2022-12-29T02:26:04;97033.50;;;10.34;100.00
5284;BME280;15377;48.540;9.268;2022-12-29T02:31:08;97038.59;;;10.41;100.00
5284;BME280;15377;48.540;9.268;2022-12-29T02:34:14;97032.69;;;10.48;100.00
5284;BME280;15377;48.540;9.268;2022-12-29T02:37:05;97026.78;;;10.55;100.00
5284;BME280;15377;48.540;9.268;2022-12-29T02:45:04;97028.31;;;10.56;100.00
5284;BME280;15377;48.540;9.268;2022-12-29T02:50:14;97029.72;;;10.66;100.00
5284;BME280;15377;48.540;9.268;2022-12-29T02:52:46;97007.34;;;10.59;100.00
5284;BME280;15377;48.540;9.268;2022-12-29T02:55:13;97028.72;;;10.69;100.00
5284;BME280;15377;48.540;9.268;2022-12-29T02:57:38;97004.94;;;10.66;100.00
5284;BME280;15377;48.540;9.268;2022-12-29T03:00:07;97013.72;;;10.70;100.00
5284;BME280;15377;48.540;9.268;2022-12-29T03:03:11;97006.72;;;10.69;100.00
5284;BME280;15377;48.540;9.268;2022-12-29T03:08:44;97017.16;;;10.85;100.00
5284;BME280;15377;48.540;9.268;2022-12-29T03:11:13;97014.97;;;10.89;100.00
5284;BME280;15377;48.540;9.268;2022-12-29T03:14:16;97008.78;;;10.74;100.00
5284;BME280;15377;48.540;9.268;2022-12-29T03:17:18;97005.22;;;10.68;100.00
5284;BME280;15377;48.540;9.268;2022-12-29T03:19:51;97027.56;;;10.76;100.00
5284;BME280;15377;48.540;9.268;2022-12-29T03:22:24;97017.91;;;10.85;100.00
5284;BME280;15377;48.540;9.268;2022-12-29T03:25:15;97018.94;;;10.88;100.00
5284;BME280;15377;48.540;9.268;2022-12-29T03:27:55;97005.03;;;10.97;100.00
5284;BME280;15377;48.540;9.268;2022-12-29T03:30:22;97013.38;;;11.02;100.00
5284;BME280;15377;48.540;9.268;2022-12-29T03:32:58;97006.38;;;11.01;100.00
5284;BME280;15377;48.540;9.268;2022-12-29T03:35:27;97015.44;;;11.07;100.00
5284;BME280;15377;48.540;9.268;2022-12-29T03:40:45;97016.19;;;11.08;100.00
5284;BME280;15377;48.540;9.268;2022-12-29T03:43:12;97001.28;;;10.94;100.00
5284;BME280;15377;48.540;9.268;2022-12-29T03:45:38;97000.72;;;10.90;100.00
5284;BME280;15377;48.540;9.268;2022-12-29T03:48:03;97010.00;;;10.93;100.00
5284;BME280;15377;48.540;9.268;2022-12-29T03:50:29;97011.72;;;10.90;100.00
5284;BME280;15377;48.540;9.268;2022-12-29T03:52:54;97007.94;;;10.88;100.00
5284;BME280;15377;48.540;9.268;2022-12-29T03:55:20;97005.88;;;11.03;100.00
5284;BME280;15377;48.540;9.268;2022-12-29T03:57:45;96992.38;;;11.05;100.00
5284;BME280;15377;48.540;9.268;2022-12-29T04:00:11;96991.69;;;11.10;100.00
5284;BME280;15377;48.540;9.268;2022-12-29T04:02:37;96990.84;;;11.04;100.00
5284;BME280;15377;48.540;9.268;2022-12-29T04:05:02;96985.09;;;11.02;100.00
5284;BME280;15377;48.540;9.268;2022-12-29T04:07:28;96978.28;;;10.97;100.00
5284;BME280;15377;48.540;9.268;2022-12-29T04:09:53;96969.91;;;10.87;100.00
5284;BME280;15377;48.540;9.268;2022-12-29T04:12:19;96979.13;;;10.83;100.00
5284;BME280;15377;48.540;9.268;2022-12-29T04:14:44;96998.88;;;10.82;100.00
5284;BME280;15377;48.540;9.268;2022-12-29T04:17:09;96986.78;;;10.74;100.00
5284;BME280;15377;48.540;9.268;2022-12-29T04:19:35;96973.03;;;10.74;100.00
5284;BME280;15377;48.540;9.268;2022-12-29T04:22:00;96983.00;;;10.72;100.00
5284;BME280;15377;48.540;9.268;2022-12-29T04:24:25;96981.03;;;10.77;100.00
5284;BME280;15377;48.540;9.268;2022-12-29T04:26:50;96984.44;;;10.67;100.00
5284;BME280;15377;48.540;9.268;2022-12-29T04:29:16;96988.91;;;10.65;100.00
5284;BME280;15377;48.540;9.268;2022-12-29T04:31:41;96984.44;;;10.67;100.00
5284;BME280;15377;48.540;9.268;2022-12-29T04:34:07;96988.91;;;10.65;100.00
5284;BME280;15377;48.540;9.268;2022-12-29T04:36:32;96995.16;;;10.65;100.00
5284;BME280;15377;48.540;9.268;2022-12-29T04:38:57;96988.34;;;10.61;100.00
5284;BME280;15377;48.540;9.268;2022-12-29T04:41:23;97002.59;;;10.59;100.00
5284;BME280;15377;48.540;9.268;2022-12-29T04:43:48;97005.97;;;10.49;100.00
5284;BME280;15377;48.540;9.268;2022-12-29T04:46:14;96989.38;;;10.43;100.00
5284;BME280;15377;48.540;9.268;2022-12-29T04:48:39;97000.19;;;10.47;100.00
5284;BME280;15377;48.540;9.268;2022-12-29T04:51:04;96984.28;;;10.36;100.00
5284;BME280;15377;48.540;9.268;2022-12-29T04:53:30;96986.97;;;10.31;100.00
5284;BME280;15377;48.540;9.268;2022-12-29T04:55:55;96980.69;;;10.30;100.00
5284;BME280;15377;48.540;9.268;2022-12-29T04:58:21;96983.78;;;10.38;100.00
5284;BME280;15377;48.540;9.268;2022-12-29T05:00:47;96978.38;;;10.43;100.00
5284;BME280;15377;48.540;9.268;2022-12-29T05:03:12;96993.91;;;10.46;100.00
5284;BME280;15377;48.540;9.268;2022-12-29T05:05:38;97002.16;;;10.46;100.00
5284;BME280;15377;48.540;9.268;2022-12-29T05:08:04;97003.41;;;10.45;100.00
5284;BME280;15377;48.540;9.268;2022-12-29T05:10:29;97001.53;;;10.37;100.00
5284;BME280;15377;48.540;9.268;2022-12-29T05:12:54;97011.22;;;10.32;100.00
5284;BME280;15377;48.540;9.268;2022-12-29T05:15:20;97009.59;;;10.40;100.00
5284;BME280;15377;48.540;9.268;2022-12-29T05:17:45;97011.59;;;10.40;100.00
5284;BME280;15377;48.540;9.268;2022-12-29T05:20:11;97019.72;;;10.49;100.00
5284;BME280;15377;48.540;9.268;2022-12-29T05:22:36;97021.44;;;10.66;100.00
5284;BME280;15377;48.540;9.268;2022-12-29T05:25:02;97012.97;;;10.70;100.00
5284;BME280;15377;48.540;9.268;2022-12-29T05:27:27;97024.59;;;10.79;100.00
5284;BME280;15377;48.540;9.268;2022-12-29T05:29:53;97022.06;;;10.76;100.00
5284;BME280;15377;48.540;9.268;2022-12-29T05:32:19;97014.06;;;10.77;100.00
5284;BME280;15377;48.540;9.268;2022-12-29T05:34:44;96978.91;;;10.47;100.00
5284;BME280;15377;48.540;9.268;2022-12-29T05:37:09;96994.72;;;10.32;100.00
5284;BME280;15377;48.540;9.268;2022-12-29T05:39:35;96994.97;;;10.14;100.00
5284;BME280;15377;48.540;9.268;2022-12-29T05:42:00;97009.19;;;10.13;100.00
5284;BME280;15377;48.540;9.268;2022-12-29T05:44:26;97002.66;;;10.10;100.00
5284;BME280;15377;48.540;9.268;2022-12-29T05:46:51;96990.63;;;10.08;100.00
5284;BME280;15377;48.540;9.268;2022-12-29T05:49:17;96991.59;;;9.90;100.00
5284;BME280;15377;48.540;9.268;2022-12-29T05:51:42;97008.63;;;9.94;100.00
5284;BME280;15377;48.540;9.268;2022-12-29T05:54:08;97011.75;;;10.16;100.00
5284;BME280;15377;48.540;9.268;2022-12-29T05:56:33;97006.63;;;10.44;100.00
5284;BME280;15377;48.540;9.268;2022-12-29T05:58:58;96992.00;;;10.52;100.00
5284;BME280;15377;48.540;9.268;2022-12-29T06:01:24;97005.91;;;10.83;100.00
5284;BME280;15377;48.540;9.268;2022-12-29T06:03:49;96993.66;;;10.84;100.00
5284;BME280;15377;48.540;9.268;2022-12-29T06:06:15;97003.25;;;10.94;100.00
5284;BME280;15377;48.540;9.268;2022-12-29T06:08:41;97008.34;;;11.01;100.00
5284;BME280;15377;48.540;9.268;2022-12-29T06:11:06;96991.34;;;11.02;100.00
5284;BME280;15377;48.540;9.268;2022-12-29T06:13:31;96988.09;;;11.04;100.00
5284;BME280;15377;48.540;9.268;2022-12-29T06:15:57;96987.09;;;11.01;100.00
5284;BME280;15377;48.540;9.268;2022-12-29T06:18:22;96995.41;;;11.07;100.00
5284;BME280;15377;48.540;9.268;2022-12-29T06:20:47;96991.47;;;11.13;100.00
5284;BME280;15377;48.540;9.268;2022-12-29T06:23:13;96988.75;;;11.19;100.00
5284;BME280;15377;48.540;9.268;2022-12-29T06:25:38;96965.66;;;11.11;100.00
5284;BME280;15377;48.540;9.268;2022-12-29T06:28:04;96960.75;;;11.20;100.00
5284;BME280;15377;48.540;9.268;2022-12-29T06:30:30;96961.44;;;11.15;100.00
5284;BME280;15377;48.540;9.268;2022-12-29T06:32:56;96966.88;;;11.10;100.00
5284;BME280;15377;48.540;9.268;2022-12-29T06:35:22;96978.81;;;11.27;100.00
5284;BME280;15377;48.540;9.268;2022-12-29T06:37:48;96966.72;;;11.19;100.00
5284;BME280;15377;48.540;9.268;2022-12-29T06:40:14;96953.16;;;11.15;100.00
5284;BME280;15377;48.540;9.268;2022-12-29T06:42:39;96965.19;;;11.38;100.00
5284;BME280;15377;48.540;9.268;2022-12-29T06:45:05;96961.34;;;11.30;100.00
5284;BME280;15377;48.540;9.268;2022-12-29T06:47:31;96974.81;;;11.28;100.00
5284;BME280;15377;48.540;9.268;2022-12-29T06:49:56;96980.63;;;11.30;100.00
5284;BME280;15377;48.540;9.268;2022-12-29T06:52:21;96973.00;;;11.19;100.00
5284;BME280;15377;48.540;9.268;2022-12-29T06:54:49;96981.47;;;11.16;100.00
5284;BME280;15377;48.540;9.268;2022-12-29T06:57:14;96988.22;;;11.15;100.00
5284;BME280;15377;48.540;9.268;2022-12-29T06:59:39;96981.22;;;11.14;100.00
5284;BME280;15377;48.540;9.268;2022-12-29T07:02:05;96987.47;;;11.14;100.00
5284;BME280;15377;48.540;9.268;2022-12-29T07:04:30;96985.75;;;11.17;100.00
5284;BME280;15377;48.540;9.268;2022-12-29T07:06:56;96989.19;;;11.12;100.00
5284;BME280;15377;48.540;9.268;2022-12-29T07:09:21;96972.00;;;10.97;100.00
5284;BME280;15377;48.540;9.268;2022-12-29T07:11:46;96973.97;;;10.91;100.00
5284;BME280;15377;48.540;9.268;2022-12-29T07:14:12;96980.00;;;10.95;100.00
5284;BME280;15377;48.540;9.268;2022-12-29T07:16:38;96968.47;;;10.91;100.00
5284;BME280;15377;48.540;9.268;2022-12-29T07:19:04;96976.34;;;11.03;100.00
5284;BME280;15377;48.540;9.268;2022-12-29T07:21:29;96983.16;;;11.08;100.00
5284;BME280;15377;48.540;9.268;2022-12-29T07:23:55;96968.44;;;11.16;100.00
5284;BME280;15377;48.540;9.268;2022-12-29T07:26:20;96977.75;;;11.19;100.00
5284;BME280;15377;48.540;9.268;2022-12-29T07:28:46;96967.59;;;11.05;100.00
5284;BME280;15377;48.540;9.268;2022-12-29T07:31:17;96966.50;;;10.97;100.00
5284;BME280;15377;48.540;9.268;2022-12-29T07:33:44;96970.06;;;11.03;100.00
5284;BME280;15377;48.540;9.268;2022-12-29T07:36:10;96976.09;;;11.01;100.00
5284;BME280;15377;48.540;9.268;2022-12-29T07:38:36;96978.53;;;10.99;100.00
5284;BME280;15377;48.540;9.268;2022-12-29T07:41:01;96983.00;;;10.97;100.00
5284;BME280;15377;48.540;9.268;2022-12-29T07:43:27;96977.97;;;10.90;100.00
5284;BME280;15377;48.540;9.268;2022-12-29T07:45:52;96964.97;;;10.71;100.00
5284;BME280;15377;48.540;9.268;2022-12-29T07:48:18;96987.03;;;10.76;100.00
5284;BME280;15377;48.540;9.268;2022-12-29T07:50:43;96980.72;;;10.70;100.00
5284;BME280;15377;48.540;9.268;2022-12-29T07:53:08;96994.31;;;10.79;100.00
5284;BME280;15377;48.540;9.268;2022-12-29T07:55:34;96988.56;;;10.77;100.00
5284;BME280;15377;48.540;9.268;2022-12-29T07:57:59;96971.28;;;10.77;100.00
5284;BME280;15377;48.540;9.268;2022-12-29T08:00:25;96986.69;;;10.88;100.00
5284;BME280;15377;48.540;9.268;2022-12-29T08:02:50;96998.16;;;11.07;100.00
5284;BME280;15377;48.540;9.268;2022-12-29T08:05:16;96975.03;;;10.99;100.00
5284;BME280;15377;48.540;9.268;2022-12-29T08:07:45;96993.59;;;11.24;100.00
5284;BME280;15377;48.540;9.268;2022-12-29T08:10:11;96987.09;;;11.27;100.00
5284;BME280;15377;48.540;9.268;2022-12-29T08:12:40;96984.97;;;11.42;100.00
5284;BME280;15377;48.540;9.268;2022-12-29T08:15:06;96992.28;;;11.45;100.00
5284;BME280;15377;48.540;9.268;2022-12-29T08:17:32;96989.06;;;11.52;100.00
5284;BME280;15377;48.540;9.268;2022-12-29T08:19:57;96995.00;;;11.65;100.00
5284;BME280;15377;48.540;9.268;2022-12-29T08:22:23;96995.47;;;11.63;100.00
5284;BME280;15377;48.540;9.268;2022-12-29T08:24:48;97013.38;;;11.73;100.00
5284;BME280;15377;48.540;9.268;2022-12-29T08:27:14;96998.28;;;11.69;100.00
5284;BME280;15377;48.540;9.268;2022-12-29T08:29:39;97012.41;;;11.82;100.00
5284;BME280;15377;48.540;9.268;2022-12-29T08:32:04;97022.19;;;11.83;100.00
5284;BME280;15377;48.540;9.268;2022-12-29T08:34:31;97008.78;;;11.96;100.00
5284;BME280;15377;48.540;9.268;2022-12-29T08:36:56;97013.38;;;12.04;100.00
5284;BME280;15377;48.540;9.268;2022-12-29T08:39:22;97001.81;;;12.06;100.00
5284;BME280;15377;48.540;9.268;2022-12-29T08:41:47;97000.34;;;12.10;100.00
5284;BME280;15377;48.540;9.268;2022-12-29T08:44:15;96991.38;;;12.15;100.00
5284;BME280;15377;48.540;9.268;2022-12-29T08:46:41;96996.22;;;12.26;100.00
5284;BME280;15377;48.540;9.268;2022-12-29T08:49:06;96999.53;;;12.35;100.00
5284;BME280;15377;48.540;9.268;2022-12-29T08:51:32;97006.78;;;12.33;100.00
5284;BME280;15377;48.540;9.268;2022-12-29T08:53:58;96992.00;;;12.36;100.00
5284;BME280;15377;48.540;9.268;2022-12-29T08:56:23;96998.78;;;12.40;100.00
5284;BME280;15377;48.540;9.268;2022-12-29T08:58:50;97002.53;;;12.37;100.00
5284;BME280;15377;48.540;9.268;2022-12-29T09:01:16;97023.66;;;12.46;100.00
5284;BME280;15377;48.540;9.268;2022-12-29T09:03:41;97001.78;;;12.37;100.00
5284;BME280;15377;48.540;9.268;2022-12-29T09:06:07;97016.59;;;12.39;100.00
5284;BME280;15377;48.540;9.268;2022-12-29T09:08:32;97004.97;;;12.24;100.00
5284;BME280;15377;48.540;9.268;2022-12-29T09:11:16;97027.88;;;12.36;100.00
5284;BME280;15377;48.540;9.268;2022-12-29T09:13:42;97023.78;;;12.26;100.00
5284;BME280;15377;48.540;9.268;2022-12-29T09:16:07;97013.56;;;12.32;100.00
5284;BME280;15377;48.540;9.268;2022-12-29T09:18:33;97016.03;;;12.30;100.00
5284;BME280;15377;48.540;9.268;2022-12-29T09:21:00;97038.41;;;12.37;100.00
5284;BME280;15377;48.540;9.268;2022-12-29T09:23:27;97035.78;;;12.23;100.00
5284;BME280;15377;48.540;9.268;2022-12-29T09:25:53;97036.91;;;12.36;100.00
5284;BME280;15377;48.540;9.268;2022-12-29T09:28:18;97042.97;;;12.46;100.00
5284;BME280;15377;48.540;9.268;2022-12-29T09:30:44;97027.94;;;12.47;100.00
5284;BME280;15377;48.540;9.268;2022-12-29T09:33:09;97025.50;;;12.60;100.00
5284;BME280;15377;48.540;9.268;2022-12-29T09:35:34;97039.63;;;12.73;100.00
5284;BME280;15377;48.540;9.268;2022-12-29T09:38:00;97046.88;;;12.70;100.00
5284;BME280;15377;48.540;9.268;2022-12-29T09:40:31;97029.03;;;12.66;100.00
5284;BME280;15377;48.540;9.268;2022-12-29T09:46:12;97051.94;;;12.77;100.00
5284;BME280;15377;48.540;9.268;2022-12-29T09:48:50;97029.63;;;12.81;100.00
5284;BME280;15377;48.540;9.268;2022-12-29T09:51:21;97037.16;;;12.86;100.00
5284;BME280;15377;48.540;9.268;2022-12-29T09:53:56;97028.88;;;12.86;100.00
5284;BME280;15377;48.540;9.268;2022-12-29T09:56:25;97037.25;;;12.97;100.00
5284;BME280;15377;48.540;9.268;2022-12-29T09:58:59;97022.88;;;12.87;100.00
5284;BME280;15377;48.540;9.268;2022-12-29T10:01:42;97026.22;;;12.97;100.00
5284;BME280;15377;48.540;9.268;2022-12-29T10:04:10;97018.16;;;12.99;100.00
5284;BME280;15377;48.540;9.268;2022-12-29T10:06:45;97026.72;;;13.01;100.00
5284;BME280;15377;48.540;9.268;2022-12-29T10:15:08;97005.25;;;12.79;100.00
5284;BME280;15377;48.540;9.268;2022-12-29T10:17:54;97026.88;;;12.86;100.00
5284;BME280;15377;48.540;9.268;2022-12-29T10:23:05;97012.00;;;12.73;100.00
5284;BME280;15377;48.540;9.268;2022-12-29T10:25:37;97019.53;;;12.72;100.00
5284;BME280;15377;48.540;9.268;2022-12-29T10:28:17;97019.50;;;12.67;100.00
5284;BME280;15377;48.540;9.268;2022-12-29T10:30:46;97010.44;;;12.61;100.00
5284;BME280;15377;48.540;9.268;2022-12-29T10:33:16;97029.09;;;12.77;100.00
5284;BME280;15377;48.540;9.268;2022-12-29T10:35:43;97033.88;;;12.76;100.00
5284;BME280;15377;48.540;9.268;2022-12-29T10:43:33;97037.44;;;12.82;100.00
5284;BME280;15377;48.540;9.268;2022-12-29T10:46:12;97022.59;;;12.80;100.00
5284;BME280;15377;48.540;9.268;2022-12-29T10:48:38;97035.66;;;12.85;100.00
5284;BME280;15377;48.540;9.268;2022-12-29T10:51:05;97032.63;;;12.83;100.00
5284;BME280;15377;48.540;9.268;2022-12-29T10:53:56;97025.63;;;12.82;100.00
5284;BME280;15377;48.540;9.268;2022-12-29T10:59:24;97028.63;;;12.84;100.00
5284;BME280;15377;48.540;9.268;2022-12-29T11:04:58;97038.69;;;12.87;100.00
5284;BME280;15377;48.540;9.268;2022-12-29T11:07:27;97036.19;;;12.89;100.00
5284;BME280;15377;48.540;9.268;2022-12-29T11:09:55;97035.44;;;12.94;100.00
5284;BME280;15377;48.540;9.268;2022-12-29T11:12:40;97030.50;;;13.03;100.00
5284;BME280;15377;48.540;9.268;2022-12-29T11:17:43;97030.50;;;13.09;100.00
5284;BME280;15377;48.540;9.268;2022-12-29T11:20:30;97027.81;;;13.20;100.00
5284;BME280;15377;48.540;9.268;2022-12-29T11:22:57;97032.00;;;13.10;100.00
5284;BME280;15377;48.540;9.268;2022-12-29T11:25:22;97046.34;;;13.14;100.00
5284;BME280;15377;48.540;9.268;2022-12-29T11:28:12;97050.63;;;13.15;100.00
5284;BME280;15377;48.540;9.268;2022-12-29T11:30:39;97065.47;;;13.23;100.00
5284;BME280;15377;48.540;9.268;2022-12-29T11:33:04;97057.16;;;13.12;100.00
5284;BME280;15377;48.540;9.268;2022-12-29T11:35:31;97056.69;;;12.77;100.00
5284;BME280;15377;48.540;9.268;2022-12-29T11:37:57;97065.03;;;12.46;100.00
5284;BME280;15377;48.540;9.268;2022-12-29T11:40:23;97052.22;;;12.37;100.00
5284;BME280;15377;48.540;9.268;2022-12-29T11:42:53;97057.34;;;12.55;100.00
5284;BME280;15377;48.540;9.268;2022-12-29T11:45:21;97047.13;;;12.67;100.00
5284;BME280;15377;48.540;9.268;2022-12-29T11:47:50;97057.41;;;12.66;100.00
5284;BME280;15377;48.540;9.268;2022-12-29T11:50:20;97055.16;;;12.65;100.00
5284;BME280;15377;48.540;9.268;2022-12-29T11:52:48;97051.84;;;12.61;100.00
5284;BME280;15377;48.540;9.268;2022-12-29T11:55:20;97037.03;;;12.58;100.00
5284;BME280;15377;48.540;9.268;2022-12-29T11:57:48;97036.63;;;12.71;100.00
5284;BME280;15377;48.540;9.268;2022-12-29T12:00:19;97032.06;;;12.68;100.00
5284;BME280;15377;48.540;9.268;2022-12-29T12:08:02;97024.53;;;12.63;100.00
5284;BME280;15377;48.540;9.268;2022-12-29T12:10:33;97028.50;;;12.62;100.00
5284;BME280;15377;48.540;9.268;2022-12-29T12:13:30;97045.56;;;12.55;100.00
5284;BME280;15377;48.540;9.268;2022-12-29T12:16:11;97047.53;;;12.49;100.00
5284;BME280;15377;48.540;9.268;2022-12-29T12:18:47;97039.13;;;12.32;100.00
5284;BME280;15377;48.540;9.268;2022-12-29T12:26:37;97026.22;;;12.18;100.00
5284;BME280;15377;48.540;9.268;2022-12-29T12:29:12;97051.38;;;12.26;100.00
5284;BME280;15377;48.540;9.268;2022-12-29T12:31:55;97053.25;;;12.09;100.00
5284;BME280;15377;48.540;9.268;2022-12-29T12:34:36;97054.28;;;11.80;100.00
5284;BME280;15377;48.540;9.268;2022-12-29T12:37:29;97057.28;;;11.57;100.00
5284;BME280;15377;48.540;9.268;2022-12-29T12:42:57;97018.38;;;11.24;100.00
5284;BME280;15377;48.540;9.268;2022-12-29T12:51:11;97036.22;;;11.54;100.00
5284;BME280;15377;48.540;9.268;2022-12-29T12:54:10;97034.06;;;11.63;100.00
5284;BME280;15377;48.540;9.268;2022-12-29T12:57:15;97031.09;;;11.67;100.00
5284;BME280;15377;48.540;9.268;2022-12-29T13:05:20;97032.00;;;11.84;100.00
5284;BME280;15377;48.540;9.268;2022-12-29T13:10:50;97036.97;;;11.80;100.00
5284;BME280;15377;48.540;9.268;2022-12-29T13:16:38;97032.72;;;11.79;100.00
5284;BME280;15377;48.540;9.268;2022-12-29T13:21:41;97016.97;;;11.85;100.00
5284;BME280;15377;48.540;9.268;2022-12-29T13:26:49;97024.06;;;11.97;100.00
5284;BME280;15377;48.540;9.268;2022-12-29T13:29:23;97018.81;;;11.99;100.00
5284;BME280;15377;48.540;9.268;2022-12-29T13:32:03;97007.63;;;12.08;100.00
5284;BME280;15377;48.540;9.268;2022-12-29T13:37:26;97010.38;;;12.08;100.00
5284;BME280;15377;48.540;9.268;2022-12-29T13:39:56;97010.09;;;12.06;100.00
5284;BME280;15377;48.540;9.268;2022-12-29T13:42:24;97019.63;;;12.05;100.00
5284;BME280;15377;48.540;9.268;2022-12-29T13:45:02;97010.09;;;12.06;100.00
5284;BME280;15377;48.540;9.268;2022-12-29T13:47:46;97016.25;;;12.26;100.00
5284;BME280;15377;48.540;9.268;2022-12-29T13:50:19;97009.09;;;12.40;100.00
5284;BME280;15377;48.540;9.268;2022-12-29T13:52:59;96991.28;;;12.41;100.00
5284;BME280;15377;48.540;9.268;2022-12-29T13:55:52;97006.38;;;12.51;100.00
5284;BME280;15377;48.540;9.268;2022-12-29T14:01:34;96995.81;;;12.44;100.00
5284;BME280;15377;48.540;9.268;2022-12-29T14:04:03;97004.53;;;12.37;100.00
5284;BME280;15377;48.540;9.268;2022-12-29T14:06:35;97003.00;;;12.30;100.00
5284;BME280;15377;48.540;9.268;2022-12-29T14:09:26;96998.50;;;12.33;100.00
5284;BME280;15377;48.540;9.268;2022-12-29T14:11:52;96986.41;;;12.25;100.00
5284;BME280;15377;48.540;9.268;2022-12-29T14:14:24;96999.75;;;12.32;100.00
5284;BME280;15377;48.540;9.268;2022-12-29T14:16:51;97003.22;;;12.27;100.00
5284;BME280;15377;48.540;9.268;2022-12-29T14:19:26;96988.13;;;12.17;100.00
5284;BME280;15377;48.540;9.268;2022-12-29T14:22:01;96993.31;;;12.09;100.00
5284;BME280;15377;48.540;9.268;2022-12-29T14:37:27;96988.50;;;11.68;100.00
5284;BME280;15377;48.540;9.268;2022-12-29T14:40:18;96990.72;;;11.64;100.00
5284;BME280;15377;48.540;9.268;2022-12-29T14:42:45;96993.88;;;11.57;100.00
5284;BME280;15377;48.540;9.268;2022-12-29T14:47:47;96990.94;;;11.35;100.00
5284;BME280;15377;48.540;9.268;2022-12-29T14:53:02;96984.88;;;11.31;100.00
5284;BME280;15377;48.540;9.268;2022-12-29T14:55:54;96985.75;;;11.42;100.00
5284;BME280;15377;48.540;9.268;2022-12-29T14:58:28;96978.44;;;11.39;100.00
5284;BME280;15377;48.540;9.268;2022-12-29T15:00:55;96992.28;;;11.45;100.00
5284;BME280;15377;48.540;9.268;2022-12-29T15:03:30;96995.34;;;11.27;100.00
5284;BME280;15377;48.540;9.268;2022-12-29T15:06:04;96993.31;;;11.22;100.00
5284;BME280;15377;48.540;9.268;2022-12-29T15:08:33;96997.75;;;11.14;100.00